createdAt,value
2022-09-17T00:01:08.449Z,0.70
2022-09-17T00:03:35.930Z,0.60
2022-09-17T00:06:05.330Z,0.50
2022-09-17T00:08:32.681Z,0.73
2022-09-17T00:11:10.494Z,0.67
2022-09-17T00:13:37.319Z,0.57
2022-09-17T00:16:04.208Z,0.57
2022-09-17T00:18:30.859Z,0.47
2022-09-17T00:20:57.487Z,0.60
2022-09-17T00:23:24.173Z,0.70
2022-09-17T00:25:50.819Z,0.40
2022-09-17T00:28:17.444Z,0.80
2022-09-17T00:30:45.268Z,0.60
2022-09-17T00:33:16.702Z,0.60
2022-09-17T00:35:44.368Z,0.70
2022-09-17T00:38:11.450Z,0.70
2022-09-17T00:40:38.465Z,0.63
2022-09-17T00:43:06.877Z,0.60
2022-09-17T00:45:33.488Z,0.67
2022-09-17T00:48:02.887Z,0.70
2022-09-17T00:50:37.075Z,0.77
2022-09-17T00:53:19.549Z,0.70
2022-09-17T00:56:05.107Z,0.70
2022-09-17T00:58:32.833Z,0.63
2022-09-17T01:01:00.100Z,0.77
2022-09-17T01:03:27.044Z,0.70
2022-09-17T01:06:11.516Z,0.67
2022-09-17T01:08:54.676Z,0.70
2022-09-17T01:11:50.771Z,0.90
2022-09-17T01:14:31.612Z,0.70
2022-09-17T01:17:36.843Z,0.57
2022-09-17T01:20:38.404Z,0.60
2022-09-17T01:23:45.063Z,0.77
2022-09-17T01:26:48.920Z,0.63
2022-09-17T01:29:34.446Z,0.70
2022-09-17T01:32:03.779Z,0.73
2022-09-17T01:34:45.139Z,0.80
2022-09-17T01:37:19.553Z,0.70
2022-09-17T01:40:04.439Z,0.73
2022-09-17T01:42:49.062Z,0.80
2022-09-17T01:45:37.493Z,0.60
2022-09-17T01:48:19.703Z,0.70
2022-09-17T01:50:51.999Z,0.73
2022-09-17T01:53:21.544Z,0.50
2022-09-17T01:55:49.190Z,0.80
2022-09-17T01:58:27.536Z,0.70
2022-09-17T02:01:02.009Z,0.80
2022-09-17T02:03:37.880Z,0.77
2022-09-17T02:06:12.077Z,0.77
2022-09-17T02:08:50.344Z,0.70
2022-09-17T02:11:17.272Z,0.77
2022-09-17T02:13:58.787Z,0.70
2022-09-17T02:16:28.662Z,0.70
2022-09-17T02:19:06.786Z,0.60
2022-09-17T02:21:47.730Z,0.80
2022-09-17T02:24:27.653Z,0.80
2022-09-17T02:27:02.941Z,0.70
2022-09-17T02:29:39.029Z,0.90
2022-09-17T02:32:06.018Z,0.80
2022-09-17T02:34:32.913Z,0.70
2022-09-17T02:36:59.682Z,0.80
2022-09-17T02:39:27.181Z,0.97
2022-09-17T02:42:27.058Z,0.80
2022-09-17T02:45:05.357Z,0.67
2022-09-17T02:48:01.271Z,0.63
2022-09-17T02:50:51.697Z,0.60
2022-09-17T02:54:16.767Z,0.80
2022-09-17T02:56:57.876Z,0.97
2022-09-17T02:59:31.598Z,0.77
2022-09-17T03:02:12.696Z,0.70
2022-09-17T03:04:40.006Z,0.60
2022-09-17T03:07:09.060Z,0.73
2022-09-17T03:09:36.381Z,0.60
2022-09-17T03:12:03.672Z,0.70
2022-09-17T03:14:30.280Z,0.80
2022-09-17T03:16:57.409Z,0.70
2022-09-17T03:19:24.173Z,0.70
2022-09-17T03:21:50.827Z,0.87
2022-09-17T03:24:17.499Z,0.70
2022-09-17T03:26:44.129Z,0.80
2022-09-17T03:29:10.782Z,0.70
2022-09-17T03:31:37.487Z,0.70
2022-09-17T03:34:04.158Z,0.70
2022-09-17T03:36:30.911Z,0.77
2022-09-17T03:38:58.080Z,0.87
2022-09-17T03:41:25.269Z,0.60
2022-09-17T03:43:52.198Z,0.60
2022-09-17T03:46:20.425Z,0.80
2022-09-17T03:48:47.127Z,0.80
2022-09-17T03:51:13.924Z,0.80
2022-09-17T03:53:40.551Z,0.60
2022-09-17T03:56:07.616Z,0.90
2022-09-17T03:58:34.591Z,0.77
2022-09-17T04:01:03.326Z,0.80
2022-09-17T04:03:30.218Z,0.80
2022-09-17T04:05:56.918Z,1.00
2022-09-17T04:08:23.615Z,0.90
2022-09-17T04:10:51.959Z,0.87
2022-09-17T04:13:19.325Z,0.90
2022-09-17T04:15:47.103Z,0.90
2022-09-17T04:18:14.055Z,1.00
2022-09-17T04:20:40.853Z,0.90
2022-09-17T04:23:07.619Z,1.30
2022-09-17T04:25:34.321Z,0.90
2022-09-17T04:28:01.079Z,1.00
2022-09-17T04:30:27.709Z,0.87
2022-09-17T04:32:54.321Z,0.80
2022-09-17T04:35:20.995Z,0.90
2022-09-17T04:37:57.988Z,0.77
2022-09-17T04:40:26.256Z,0.73
2022-09-17T04:42:54.105Z,0.80
2022-09-17T04:45:21.056Z,0.80
2022-09-17T04:47:47.898Z,1.00
2022-09-17T04:50:14.623Z,0.80
2022-09-17T04:52:45.189Z,1.00
2022-09-17T04:55:12.728Z,0.93
2022-09-17T04:57:39.642Z,0.83
2022-09-17T05:00:10.853Z,0.97
2022-09-17T05:02:37.580Z,0.93
2022-09-17T05:05:04.480Z,1.00
2022-09-17T05:07:31.101Z,0.97
2022-09-17T05:09:57.767Z,0.93
2022-09-17T05:12:24.403Z,1.27
2022-09-17T05:14:51.113Z,0.90
2022-09-17T05:17:17.719Z,1.00
2022-09-17T05:19:44.353Z,1.00
2022-09-17T05:22:11.003Z,1.20
2022-09-17T05:24:39.364Z,0.80
2022-09-17T05:27:09.272Z,1.03
2022-09-17T05:29:36.686Z,1.00
2022-09-17T05:32:04.860Z,0.80
2022-09-17T05:34:31.508Z,1.00
2022-09-17T05:36:58.144Z,1.00
2022-09-17T05:39:27.556Z,1.00
2022-09-17T05:41:55.089Z,1.30
2022-09-17T05:44:22.054Z,1.23
2022-09-17T05:46:48.767Z,0.90
2022-09-17T05:49:15.646Z,0.90
2022-09-17T05:51:42.869Z,1.17
2022-09-17T05:54:09.563Z,1.00
2022-09-17T05:56:36.234Z,1.00
2022-09-17T05:59:03.064Z,1.00
2022-09-17T06:01:29.963Z,1.07
2022-09-17T06:03:56.751Z,0.93
2022-09-17T06:06:23.489Z,0.90
2022-09-17T06:08:50.164Z,1.10
2022-09-17T06:11:16.840Z,1.00
2022-09-17T06:13:43.819Z,1.00
2022-09-17T06:16:10.455Z,1.03
2022-09-17T06:18:37.174Z,1.17
2022-09-17T06:21:05.626Z,1.10
2022-09-17T06:23:37.310Z,1.13
2022-09-17T06:26:05.453Z,1.20
2022-09-17T06:28:32.622Z,1.03
2022-09-17T06:31:03.957Z,1.30
2022-09-17T06:33:31.343Z,0.83
2022-09-17T06:36:00.622Z,1.03
2022-09-17T06:38:31.274Z,1.10
2022-09-17T06:40:58.209Z,0.93
2022-09-17T06:43:25.607Z,1.23
2022-09-17T06:45:56.533Z,1.00
2022-09-17T06:48:23.498Z,1.00
2022-09-17T06:50:51.456Z,1.20
2022-09-17T06:53:19.964Z,1.30
2022-09-17T06:55:46.672Z,1.10
2022-09-17T06:58:13.327Z,1.10
2022-09-17T07:00:40.157Z,1.20
2022-09-17T07:03:06.958Z,0.97
2022-09-17T07:05:33.603Z,0.90
2022-09-17T07:08:03.453Z,0.93
2022-09-17T07:10:31.034Z,1.20
2022-09-17T07:12:59.138Z,1.20
2022-09-17T07:15:25.931Z,0.90
2022-09-17T07:17:52.884Z,1.10
2022-09-17T07:20:19.954Z,1.10
2022-09-17T07:22:46.766Z,1.27
2022-09-17T07:25:13.481Z,1.20
2022-09-17T07:27:40.102Z,0.83
2022-09-17T07:30:07.397Z,0.97
2022-09-17T07:32:34.085Z,1.00
2022-09-17T07:35:00.730Z,1.17
2022-09-17T07:37:27.613Z,1.00
2022-09-17T07:39:54.365Z,1.03
2022-09-17T07:42:21.018Z,0.97
2022-09-17T07:44:47.745Z,0.93
2022-09-17T07:47:14.393Z,1.10
2022-09-17T07:49:41.234Z,1.00
2022-09-17T07:52:07.902Z,1.20
2022-09-17T07:54:36.827Z,1.00
2022-09-17T07:57:04.140Z,1.00
2022-09-17T07:59:30.880Z,1.00
2022-09-17T08:01:57.672Z,1.00
2022-09-17T08:04:24.545Z,1.00
2022-09-17T08:06:51.172Z,1.00
2022-09-17T08:09:18.659Z,0.80
2022-09-17T08:11:55.660Z,1.00
2022-09-17T08:14:28.511Z,1.00
2022-09-17T08:16:56.298Z,1.00
2022-09-17T08:19:22.928Z,1.10
2022-09-17T08:21:49.526Z,1.07
2022-09-17T08:24:16.184Z,1.00
2022-09-17T08:26:42.806Z,1.10
2022-09-17T08:29:11.198Z,1.20
2022-09-17T08:31:38.007Z,1.20
2022-09-17T08:34:09.229Z,1.10
2022-09-17T08:36:35.900Z,1.30
2022-09-17T08:39:02.889Z,1.20
2022-09-17T08:41:36.080Z,1.40
2022-09-17T08:44:07.124Z,1.20
2022-09-17T08:46:46.370Z,1.73
2022-09-17T08:49:41.921Z,1.33
2022-09-17T08:52:32.370Z,1.40
2022-09-17T08:55:07.847Z,1.37
2022-09-17T08:57:48.804Z,1.23
2022-09-17T09:00:23.287Z,1.33
2022-09-17T09:03:22.119Z,1.23
2022-09-17T09:05:52.445Z,1.40
2022-09-17T09:08:22.603Z,1.60
2022-09-17T09:10:55.733Z,1.30
2022-09-17T09:13:25.049Z,1.47
2022-09-17T09:16:05.965Z,1.30
2022-09-17T09:18:36.883Z,1.63
2022-09-17T09:21:22.139Z,1.40
2022-09-17T09:24:22.294Z,1.57
2022-09-17T09:27:25.026Z,1.40
2022-09-17T09:35:09.176Z,1.37
2022-09-17T09:37:39.510Z,1.50
2022-09-17T09:40:41.395Z,1.30
2022-09-17T09:44:02.599Z,1.43
2022-09-17T09:46:53.634Z,1.40
2022-09-17T09:49:38.329Z,1.57
2022-09-17T09:52:14.140Z,1.60
2022-09-17T09:55:22.271Z,1.83
2022-09-17T09:57:55.819Z,1.47
2022-09-17T10:00:31.544Z,1.47
2022-09-17T10:03:42.570Z,1.27
2022-09-17T10:06:10.365Z,1.40
2022-09-17T10:08:42.042Z,1.30
2022-09-17T10:11:11.415Z,1.70
2022-09-17T10:13:38.249Z,1.53
2022-09-17T10:16:21.546Z,1.40
2022-09-17T10:18:49.572Z,1.40
2022-09-17T10:21:36.830Z,1.50
2022-09-17T10:24:05.156Z,1.40
2022-09-17T10:26:34.825Z,1.43
2022-09-17T10:29:21.755Z,1.40
2022-09-17T10:31:56.173Z,1.30
2022-09-17T10:34:28.937Z,1.50
2022-09-17T10:36:56.680Z,1.30
2022-09-17T10:39:31.800Z,1.53
2022-09-17T10:42:00.693Z,1.20
2022-09-17T10:44:35.589Z,1.33
2022-09-17T10:47:14.485Z,1.43
2022-09-17T10:49:57.818Z,1.43
2022-09-17T10:52:34.356Z,1.30
2022-09-17T10:55:19.194Z,1.47
2022-09-17T10:58:05.835Z,1.30
2022-09-17T11:00:50.820Z,1.10
2022-09-17T11:03:38.918Z,1.40
2022-09-17T11:06:14.161Z,1.10
2022-09-17T11:09:28.601Z,1.10
2022-09-17T11:12:18.280Z,1.10
2022-09-17T11:14:59.562Z,1.47
2022-09-17T11:17:50.070Z,1.10
2022-09-17T11:20:41.969Z,1.20
2022-09-17T11:23:20.679Z,1.40
2022-09-17T11:26:08.398Z,1.20
2022-09-17T11:28:37.985Z,1.10
2022-09-17T11:31:29.065Z,1.10
2022-09-17T11:34:09.268Z,1.07
2022-09-17T11:36:46.845Z,1.23
2022-09-17T11:39:25.368Z,1.30
2022-09-17T11:41:52.739Z,1.00
2022-09-17T11:44:36.509Z,1.10
2022-09-17T11:47:14.776Z,1.20
2022-09-17T11:50:01.719Z,1.10
2022-09-17T11:52:38.686Z,1.20
2022-09-17T11:55:16.924Z,1.13
2022-09-17T11:57:44.686Z,1.20
2022-09-17T12:00:18.017Z,1.20
2022-09-17T12:03:14.164Z,1.27
2022-09-17T12:05:45.688Z,1.03
2022-09-17T12:08:29.654Z,1.00
2022-09-17T12:11:15.229Z,1.00
2022-09-17T12:13:49.375Z,1.30
2022-09-17T12:16:28.345Z,1.00
2022-09-17T12:19:27.157Z,1.10
2022-09-17T12:22:10.753Z,0.90
2022-09-17T12:24:38.793Z,1.20
2022-09-17T12:27:17.368Z,1.07
2022-09-17T12:30:05.038Z,1.10
2022-09-17T12:32:50.655Z,0.97
2022-09-17T12:35:59.704Z,1.00
2022-09-17T12:38:32.991Z,1.30
2022-09-17T12:41:19.689Z,1.10
2022-09-17T12:44:07.684Z,1.00
2022-09-17T12:46:41.877Z,1.00
2022-09-17T12:49:20.897Z,1.23
2022-09-17T12:51:53.045Z,1.07
2022-09-17T12:54:45.453Z,0.80
2022-09-17T12:57:34.740Z,0.97
2022-09-17T13:00:08.625Z,0.83
2022-09-17T13:02:50.585Z,0.90
2022-09-17T13:05:55.716Z,0.80
2022-09-17T13:08:45.326Z,1.00
2022-09-17T13:11:26.620Z,0.83
2022-09-17T13:14:04.857Z,0.97
2022-09-17T13:16:45.522Z,0.83
2022-09-17T13:19:44.187Z,0.90
2022-09-17T13:22:18.306Z,0.90
2022-09-17T13:24:47.510Z,0.70
2022-09-17T13:27:23.129Z,0.70
2022-09-17T13:29:55.834Z,0.80
2022-09-17T13:32:38.781Z,0.73
2022-09-17T13:35:17.057Z,0.70
2022-09-17T13:37:44.357Z,0.70
2022-09-17T13:40:25.994Z,0.77
2022-09-17T13:42:57.079Z,1.10
2022-09-17T13:45:25.662Z,0.70
2022-09-17T13:47:56.146Z,0.70
2022-09-17T13:50:27.711Z,0.80
2022-09-17T13:52:56.090Z,0.60
2022-09-17T13:55:35.670Z,0.70
2022-09-17T13:58:12.347Z,0.70
2022-09-17T14:00:51.801Z,0.97
2022-09-17T14:03:30.931Z,0.80
2022-09-17T14:05:58.971Z,0.80
2022-09-17T14:08:31.202Z,0.77
2022-09-17T14:11:00.085Z,0.80
2022-09-17T14:13:42.438Z,0.80
2022-09-17T14:16:42.751Z,0.80
2022-09-17T14:19:27.710Z,0.70
2022-09-17T14:22:00.986Z,0.77
2022-09-17T14:24:38.094Z,0.90
2022-09-17T14:27:15.423Z,1.00
2022-09-17T14:29:43.609Z,0.67
2022-09-17T14:32:33.482Z,1.00
2022-09-17T14:35:15.574Z,1.07
2022-09-17T14:37:49.288Z,0.80
2022-09-17T14:40:18.959Z,0.90
2022-09-17T14:42:46.171Z,0.80
2022-09-17T14:45:37.065Z,0.90
2022-09-17T14:48:29.492Z,0.80
2022-09-17T14:51:18.401Z,0.80
2022-09-17T14:53:49.513Z,0.93
2022-09-17T14:56:25.044Z,1.00
2022-09-17T14:58:53.631Z,0.90
2022-09-17T15:01:28.372Z,0.90
2022-09-17T15:04:14.240Z,0.93
2022-09-17T15:06:41.984Z,0.90
2022-09-17T15:09:26.023Z,1.00
2022-09-17T15:11:54.235Z,0.90
2022-09-17T15:14:30.935Z,0.97
2022-09-17T15:17:02.002Z,1.00
2022-09-17T15:19:35.925Z,0.90
2022-09-17T15:22:18.213Z,0.90
2022-09-17T15:25:08.110Z,1.00
2022-09-17T15:27:42.858Z,1.10
2022-09-17T15:30:20.837Z,0.97
2022-09-17T15:32:55.907Z,1.00
2022-09-17T15:35:33.621Z,1.20
2022-09-17T15:38:23.240Z,1.20
2022-09-17T15:40:50.857Z,1.23
2022-09-17T15:43:19.195Z,1.30
2022-09-17T15:45:46.649Z,1.20
2022-09-17T15:48:28.448Z,1.30
2022-09-17T15:50:57.238Z,1.20
2022-09-17T15:53:25.049Z,1.00
2022-09-17T15:56:13.234Z,1.30
2022-09-17T15:58:43.020Z,1.30
2022-09-17T16:01:16.010Z,1.03
2022-09-17T16:03:45.861Z,1.20
2022-09-17T16:06:18.508Z,1.13
2022-09-17T16:08:50.408Z,1.10
2022-09-17T16:11:25.881Z,1.40
2022-09-17T16:14:00.830Z,1.20
2022-09-17T16:16:39.223Z,1.00
2022-09-17T16:19:12.792Z,1.03
2022-09-17T16:21:47.100Z,1.00
2022-09-17T16:24:14.520Z,1.03
2022-09-17T16:26:42.243Z,0.90
2022-09-17T16:29:15.501Z,0.97
2022-09-17T16:31:42.612Z,1.00
2022-09-17T16:34:09.490Z,0.90
2022-09-17T16:36:36.464Z,0.90
2022-09-17T16:39:06.516Z,0.90
2022-09-17T16:41:34.015Z,0.87
2022-09-17T16:44:00.875Z,0.90
2022-09-17T16:46:27.751Z,1.03
2022-09-17T16:49:04.324Z,0.90
2022-09-17T16:51:46.442Z,1.00
2022-09-17T16:54:32.315Z,1.30
2022-09-17T16:57:01.796Z,0.93
2022-09-17T16:59:45.564Z,0.90
2022-09-17T17:02:14.913Z,1.00
2022-09-17T17:07:42.960Z,1.00
2022-09-17T17:10:12.937Z,1.03
2022-09-17T17:12:40.829Z,1.30
2022-09-17T17:15:10.943Z,1.40
2022-09-17T17:17:38.718Z,0.90
2022-09-17T17:20:10.863Z,1.10
2022-09-17T17:22:40.180Z,1.10
2022-09-17T17:25:16.754Z,0.90
2022-09-17T17:31:21.429Z,1.10
2022-09-17T17:47:50.089Z,0.80
2022-09-17T17:50:18.750Z,0.90
2022-09-17T17:53:16.469Z,1.00
2022-09-17T17:56:13.682Z,1.20
2022-09-17T17:59:36.064Z,1.00
2022-09-17T18:02:50.673Z,1.00
2022-09-17T18:05:27.841Z,0.93
2022-09-17T18:08:33.690Z,0.90
2022-09-17T18:11:10.257Z,0.83
2022-09-17T18:13:40.862Z,1.10
2022-09-17T18:16:25.860Z,0.97
2022-09-17T18:18:56.622Z,0.90
2022-09-17T18:21:25.978Z,1.10
2022-09-17T18:23:53.441Z,1.00
2022-09-17T18:26:22.833Z,0.90
2022-09-17T18:29:01.437Z,1.13
2022-09-17T18:31:32.777Z,1.10
2022-09-17T18:34:14.529Z,1.10
2022-09-17T18:36:50.315Z,1.10
2022-09-17T18:42:23.595Z,1.10
2022-09-17T18:44:50.991Z,1.07
2022-09-17T18:47:32.971Z,1.00
2022-09-17T18:50:00.664Z,1.10
2022-09-17T18:52:33.310Z,1.03
2022-09-17T18:55:07.600Z,0.87
2022-09-17T18:57:47.058Z,1.00
2022-09-17T19:00:27.991Z,1.00
2022-09-17T19:03:25.226Z,1.00
2022-09-17T19:05:57.261Z,0.90
2022-09-17T19:08:25.019Z,1.00
2022-09-17T19:14:44.133Z,0.90
2022-09-17T19:17:17.817Z,0.83
2022-09-17T19:19:51.220Z,0.80
2022-09-17T19:22:19.005Z,0.77
2022-09-17T19:24:45.817Z,0.80
2022-09-17T19:27:15.243Z,0.97
2022-09-17T19:29:42.506Z,0.73
2022-09-17T19:32:16.028Z,0.50
2022-09-17T19:34:43.746Z,0.47
2022-09-17T19:37:10.695Z,0.50
2022-09-17T19:39:37.691Z,0.40
2022-09-17T19:42:04.926Z,0.50
2022-09-17T19:44:31.853Z,0.50
2022-09-17T19:46:58.951Z,0.43
2022-09-17T19:49:25.922Z,0.37
2022-09-17T19:51:52.887Z,0.60
2022-09-17T19:54:19.734Z,0.60
2022-09-17T19:56:47.425Z,0.60
2022-09-17T19:59:14.819Z,0.80
2022-09-17T20:01:44.896Z,0.60
2022-09-17T20:04:14.028Z,0.60
2022-09-17T20:06:40.730Z,0.70
2022-09-17T20:09:07.605Z,0.70
2022-09-17T20:11:34.556Z,0.70
2022-09-17T20:14:09.123Z,0.63
2022-09-17T20:16:37.148Z,0.70
2022-09-17T20:19:09.961Z,0.57
2022-09-17T20:21:37.113Z,0.70
2022-09-17T20:24:06.339Z,0.90
2022-09-17T20:26:33.695Z,0.50
2022-09-17T20:29:01.213Z,0.60
2022-09-17T20:31:29.726Z,0.53
2022-09-17T20:33:58.917Z,0.60
2022-09-17T20:37:12.132Z,0.90
2022-09-17T20:39:40.507Z,0.53
2022-09-17T20:42:07.867Z,0.70
2022-09-17T20:44:34.723Z,0.70
2022-09-17T20:47:02.159Z,0.70
2022-09-17T20:49:30.458Z,0.60
2022-09-17T20:51:57.941Z,0.70
2022-09-17T20:54:25.601Z,0.60
2022-09-17T20:56:52.408Z,0.70
2022-09-17T20:59:19.705Z,0.70
2022-09-17T21:01:49.662Z,0.50
2022-09-17T21:04:21.192Z,0.67
2022-09-17T21:06:53.080Z,0.70
2022-09-17T21:09:20.373Z,0.70
2022-09-17T21:11:49.538Z,0.60
2022-09-17T21:14:21.273Z,0.50
2022-09-17T21:16:49.057Z,0.80
2022-09-17T21:19:20.265Z,0.57
2022-09-17T21:21:48.455Z,0.60
2022-09-17T21:24:18.687Z,0.70
2022-09-17T21:26:45.921Z,0.50
2022-09-17T21:29:13.152Z,0.60
2022-09-17T21:31:41.413Z,0.70
2022-09-17T21:34:12.162Z,0.80
2022-09-17T21:36:40.388Z,0.70
2022-09-17T21:39:11.925Z,0.83
2022-09-17T21:41:42.494Z,0.60
2022-09-17T21:44:11.450Z,1.00
2022-09-17T21:46:38.977Z,0.70
2022-09-17T21:49:08.467Z,0.73
2022-09-17T21:51:37.990Z,0.73
2022-09-17T21:54:19.855Z,0.87
2022-09-17T21:56:46.890Z,0.60
2022-09-17T21:59:15.515Z,0.70
2022-09-17T22:01:47.035Z,0.70
2022-09-17T22:04:19.357Z,0.70
2022-09-17T22:06:47.705Z,0.70
2022-09-17T22:09:20.369Z,0.70
2022-09-17T22:11:49.308Z,0.60
2022-09-17T22:14:20.311Z,0.70
2022-09-17T22:16:53.334Z,0.63
2022-09-17T22:19:33.066Z,0.70
2022-09-17T22:21:59.905Z,0.73
2022-09-17T22:24:26.791Z,0.70
2022-09-17T22:26:57.907Z,0.80
2022-09-17T22:29:26.953Z,0.70
2022-09-17T22:31:53.716Z,0.73
2022-09-17T22:34:22.564Z,0.83
2022-09-17T22:36:49.830Z,0.70
2022-09-17T22:39:19.099Z,0.90
2022-09-17T22:41:46.146Z,0.80
2022-09-17T22:44:18.304Z,0.73
2022-09-17T22:46:46.964Z,0.90
2022-09-17T22:49:14.393Z,0.90
2022-09-17T22:51:42.010Z,0.80
2022-09-17T22:54:12.147Z,0.80
2022-09-17T22:56:39.014Z,0.70
2022-09-17T22:59:05.796Z,0.67
2022-09-17T23:01:34.437Z,1.07
2022-09-17T23:04:01.898Z,0.83
2022-09-17T23:06:31.845Z,1.00
2022-09-17T23:08:59.001Z,0.77
2022-09-17T23:11:28.472Z,0.70
2022-09-17T23:14:02.288Z,0.80
2022-09-17T23:16:37.428Z,0.80
2022-09-17T23:19:04.841Z,0.73
2022-09-17T23:21:31.666Z,0.70
2022-09-17T23:23:58.722Z,0.90
2022-09-17T23:26:26.493Z,0.80
2022-09-17T23:28:53.652Z,0.80
2022-09-17T23:31:25.287Z,1.10
2022-09-17T23:33:52.799Z,0.80
2022-09-17T23:36:30.993Z,0.90
2022-09-17T23:38:58.945Z,0.97
2022-09-17T23:41:26.659Z,1.00
2022-09-17T23:43:55.116Z,1.10
2022-09-17T23:46:23.782Z,0.67
2022-09-17T23:48:53.339Z,0.70
2022-09-17T23:51:24.450Z,0.83
2022-09-17T23:53:51.767Z,0.70
2022-09-17T23:56:21.330Z,0.80
2022-09-17T23:58:48.959Z,0.80
